< < Back
Terminal Aerodrome Forecast


Current Version              Previous Versions:   1  2  3  4  5  6  7  8  9  

Terminal Aerodrome Forecast

642
FTUS44 KOHX 130521
TAFBNA
TAF
KBNA 130521Z 1306/1406 36010KT P6SM FEW040
     FM131200 36010KT P6SM BKN250
     FM140000 03005KT P6SM BKN100=

Latest METAR

433
SAUS70 KWBC 130800 RRK
MTRBNA
METAR KBNA 130753Z 34010KT 10SM FEW060 M04/M12 A3044 RMK AO2 SLP310
T10391122


USA.gov is the U.S. government's official web portal to all federal, state and local government web resources and services.